Terminal Aerodrome Forecast
Issued by NWS Grand Forks, ND

Home | Current Version | Previous Version | Graphics & Text | Print | Product List | Glossary On
Versions: 1 2 3 4 5 6 7 8 9 10 11 12 13 14 15 16 17
000
FTUS43 KFGF 290249 AAA
TAFGFK
TAF AMD
KGFK 290249Z 2903/2924 VRB06KT P6SM BKN015
      TEMPO 2903/2905 SCT015
     FM290700 31005KT 5SM BR BKN020
      TEMPO 2910/2913 2SM BR BKN008
     FM291500 34006KT P6SM BKN025
     FM291700 36008KT P6SM BKN040=

USA.gov is the U.S. government's official web portal to all federal, state and local government web resources and services.